sensor_id;sensor_type;location;lat;lon;timestamp;temperature;humidity
8856;DHT22;4464;50.882;4.730;2023-02-13T00:00:19;3.50;99.90
8856;DHT22;4464;50.882;4.730;2023-02-13T00:02:46;3.50;99.90
8856;DHT22;4464;50.882;4.730;2023-02-13T00:05:11;3.40;99.90
8856;DHT22;4464;50.882;4.730;2023-02-13T00:07:37;3.50;99.90
8856;DHT22;4464;50.882;4.730;2023-02-13T00:10:03;3.50;99.90
8856;DHT22;4464;50.882;4.730;2023-02-13T00:12:29;3.40;99.90
8856;DHT22;4464;50.882;4.730;2023-02-13T00:14:55;3.40;99.90
8856;DHT22;4464;50.882;4.730;2023-02-13T00:17:21;3.40;99.90
8856;DHT22;4464;50.882;4.730;2023-02-13T00:19:47;3.30;99.90
8856;DHT22;4464;50.882;4.730;2023-02-13T00:22:14;3.30;99.90
8856;DHT22;4464;50.882;4.730;2023-02-13T00:24:41;3.30;99.90
8856;DHT22;4464;50.882;4.730;2023-02-13T00:27:10;3.30;99.90
8856;DHT22;4464;50.882;4.730;2023-02-13T00:29:36;3.30;99.90
8856;DHT22;4464;50.882;4.730;2023-02-13T00:32:06;3.30;99.90
8856;DHT22;4464;50.882;4.730;2023-02-13T00:34:32;3.20;99.90
8856;DHT22;4464;50.882;4.730;2023-02-13T00:36:58;3.20;99.90
8856;DHT22;4464;50.882;4.730;2023-02-13T00:39:23;3.20;99.90
8856;DHT22;4464;50.882;4.730;2023-02-13T00:41:52;3.20;99.90
8856;DHT22;4464;50.882;4.730;2023-02-13T00:44:18;3.10;99.90
8856;DHT22;4464;50.882;4.730;2023-02-13T00:46:46;3.10;99.90
8856;DHT22;4464;50.882;4.730;2023-02-13T00:49:14;3.10;99.90
8856;DHT22;4464;50.882;4.730;2023-02-13T00:51:39;3.00;99.90
8856;DHT22;4464;50.882;4.730;2023-02-13T00:54:08;3.00;99.90
8856;DHT22;4464;50.882;4.730;2023-02-13T00:56:33;3.00;99.90
8856;DHT22;4464;50.882;4.730;2023-02-13T00:58:59;3.00;99.90
8856;DHT22;4464;50.882;4.730;2023-02-13T01:01:25;3.00;99.90
8856;DHT22;4464;50.882;4.730;2023-02-13T01:03:53;2.90;99.90
8856;DHT22;4464;50.882;4.730;2023-02-13T01:06:22;2.90;99.90
8856;DHT22;4464;50.882;4.730;2023-02-13T01:08:47;2.90;99.90
8856;DHT22;4464;50.882;4.730;2023-02-13T01:11:18;2.90;99.90
8856;DHT22;4464;50.882;4.730;2023-02-13T01:13:44;2.90;99.90
8856;DHT22;4464;50.882;4.730;2023-02-13T01:16:13;2.80;99.90
8856;DHT22;4464;50.882;4.730;2023-02-13T01:18:42;2.80;99.90
8856;DHT22;4464;50.882;4.730;2023-02-13T01:21:15;2.80;99.90
8856;DHT22;4464;50.882;4.730;2023-02-13T01:23:42;2.80;99.90
8856;DHT22;4464;50.882;4.730;2023-02-13T01:26:15;2.70;99.90
8856;DHT22;4464;50.882;4.730;2023-02-13T01:28:43;2.70;99.90
8856;DHT22;4464;50.882;4.730;2023-02-13T01:31:11;2.70;99.90
8856;DHT22;4464;50.882;4.730;2023-02-13T01:33:37;2.70;99.90
8856;DHT22;4464;50.882;4.730;2023-02-13T01:36:08;2.60;99.90
8856;DHT22;4464;50.882;4.730;2023-02-13T01:38:34;2.60;99.90
8856;DHT22;4464;50.882;4.730;2023-02-13T01:41:00;2.60;99.90
8856;DHT22;4464;50.882;4.730;2023-02-13T01:43:46;2.50;99.90
8856;DHT22;4464;50.882;4.730;2023-02-13T01:46:18;2.60;99.90
8856;DHT22;4464;50.882;4.730;2023-02-13T01:48:46;2.60;99.90
8856;DHT22;4464;50.882;4.730;2023-02-13T01:51:19;2.50;99.90
8856;DHT22;4464;50.882;4.730;2023-02-13T01:54:00;2.60;99.90
8856;DHT22;4464;50.882;4.730;2023-02-13T01:56:45;2.50;99.90
8856;DHT22;4464;50.882;4.730;2023-02-13T01:59:17;2.50;99.90
8856;DHT22;4464;50.882;4.730;2023-02-13T02:01:44;2.40;99.90
8856;DHT22;4464;50.882;4.730;2023-02-13T02:04:13;2.50;99.90
8856;DHT22;4464;50.882;4.730;2023-02-13T02:06:47;2.50;99.90
8856;DHT22;4464;50.882;4.730;2023-02-13T02:09:17;2.50;99.90
8856;DHT22;4464;50.882;4.730;2023-02-13T02:11:49;2.50;99.90
8856;DHT22;4464;50.882;4.730;2023-02-13T02:14:19;2.50;99.90
8856;DHT22;4464;50.882;4.730;2023-02-13T02:16:47;2.50;99.90
8856;DHT22;4464;50.882;4.730;2023-02-13T02:22:28;2.50;99.90
8856;DHT22;4464;50.882;4.730;2023-02-13T02:27:51;2.40;99.90
8856;DHT22;4464;50.882;4.730;2023-02-13T02:30:39;2.40;99.90
8856;DHT22;4464;50.882;4.730;2023-02-13T02:33:28;2.40;99.90
8856;DHT22;4464;50.882;4.730;2023-02-13T02:36:05;2.40;99.90
8856;DHT22;4464;50.882;4.730;2023-02-13T02:39:08;2.40;99.90
8856;DHT22;4464;50.882;4.730;2023-02-13T02:58:08;2.60;99.90
8856;DHT22;4464;50.882;4.730;2023-02-13T03:01:01;2.60;99.90
8856;DHT22;4464;50.882;4.730;2023-02-13T03:03:51;2.60;99.90
8856;DHT22;4464;50.882;4.730;2023-02-13T03:06:46;2.70;99.90
8856;DHT22;4464;50.882;4.730;2023-02-13T03:09:23;2.90;99.90
8856;DHT22;4464;50.882;4.730;2023-02-13T03:12:11;2.90;99.90
8856;DHT22;4464;50.882;4.730;2023-02-13T03:14:57;2.90;99.90
8856;DHT22;4464;50.882;4.730;2023-02-13T03:17:24;2.90;99.90
8856;DHT22;4464;50.882;4.730;2023-02-13T03:34:12;2.80;99.90
8856;DHT22;4464;50.882;4.730;2023-02-13T03:41:59;2.70;99.90
8856;DHT22;4464;50.882;4.730;2023-02-13T03:47:05;2.50;99.90
8856;DHT22;4464;50.882;4.730;2023-02-13T03:49:41;2.40;99.90
8856;DHT22;4464;50.882;4.730;2023-02-13T03:54:59;2.30;99.90
8856;DHT22;4464;50.882;4.730;2023-02-13T03:57:46;2.20;99.90
8856;DHT22;4464;50.882;4.730;2023-02-13T04:00:45;2.30;99.90
8856;DHT22;4464;50.882;4.730;2023-02-13T04:05:55;2.20;99.90
8856;DHT22;4464;50.882;4.730;2023-02-13T04:08:24;2.00;99.90
8856;DHT22;4464;50.882;4.730;2023-02-13T04:11:13;2.00;99.90
8856;DHT22;4464;50.882;4.730;2023-02-13T04:13:47;2.00;99.90
8856;DHT22;4464;50.882;4.730;2023-02-13T04:16:34;1.90;99.90
8856;DHT22;4464;50.882;4.730;2023-02-13T04:19:00;1.80;99.90
8856;DHT22;4464;50.882;4.730;2023-02-13T04:21:27;1.70;99.90
8856;DHT22;4464;50.882;4.730;2023-02-13T04:23:56;1.70;99.90
8856;DHT22;4464;50.882;4.730;2023-02-13T04:26:22;1.80;99.90
8856;DHT22;4464;50.882;4.730;2023-02-13T04:28:48;1.60;99.90
8856;DHT22;4464;50.882;4.730;2023-02-13T04:31:17;1.60;99.90
8856;DHT22;4464;50.882;4.730;2023-02-13T04:33:44;1.60;99.90
8856;DHT22;4464;50.882;4.730;2023-02-13T04:36:10;1.60;99.90
8856;DHT22;4464;50.882;4.730;2023-02-13T04:38:38;1.60;99.90
8856;DHT22;4464;50.882;4.730;2023-02-13T04:41:06;1.60;99.90
8856;DHT22;4464;50.882;4.730;2023-02-13T04:43:32;1.70;99.90
8856;DHT22;4464;50.882;4.730;2023-02-13T04:46:00;1.70;99.90
8856;DHT22;4464;50.882;4.730;2023-02-13T04:48:26;1.70;99.90
8856;DHT22;4464;50.882;4.730;2023-02-13T04:50:56;1.70;99.90
8856;DHT22;4464;50.882;4.730;2023-02-13T04:53:22;1.70;99.90
8856;DHT22;4464;50.882;4.730;2023-02-13T04:55:48;1.70;99.90
8856;DHT22;4464;50.882;4.730;2023-02-13T04:58:14;1.60;99.90
8856;DHT22;4464;50.882;4.730;2023-02-13T05:00:42;1.60;99.90
8856;DHT22;4464;50.882;4.730;2023-02-13T05:03:12;1.60;99.90
8856;DHT22;4464;50.882;4.730;2023-02-13T05:05:38;1.60;99.90
8856;DHT22;4464;50.882;4.730;2023-02-13T05:08:06;1.40;99.90
8856;DHT22;4464;50.882;4.730;2023-02-13T05:10:35;1.50;99.90
8856;DHT22;4464;50.882;4.730;2023-02-13T05:13:03;1.40;99.90
8856;DHT22;4464;50.882;4.730;2023-02-13T05:15:29;1.40;99.90
8856;DHT22;4464;50.882;4.730;2023-02-13T05:17:55;1.40;99.90
8856;DHT22;4464;50.882;4.730;2023-02-13T05:20:20;1.40;99.90
8856;DHT22;4464;50.882;4.730;2023-02-13T05:22:49;1.40;99.90
8856;DHT22;4464;50.882;4.730;2023-02-13T05:25:34;1.30;99.90
8856;DHT22;4464;50.882;4.730;2023-02-13T05:28:03;1.20;99.90
8856;DHT22;4464;50.882;4.730;2023-02-13T05:30:30;1.20;99.90
8856;DHT22;4464;50.882;4.730;2023-02-13T05:32:55;1.20;99.90
8856;DHT22;4464;50.882;4.730;2023-02-13T05:35:22;1.20;99.90
8856;DHT22;4464;50.882;4.730;2023-02-13T05:37:48;1.20;99.90
8856;DHT22;4464;50.882;4.730;2023-02-13T05:40:14;1.20;99.90
8856;DHT22;4464;50.882;4.730;2023-02-13T05:42:40;1.30;99.90
8856;DHT22;4464;50.882;4.730;2023-02-13T05:45:07;1.30;99.90
8856;DHT22;4464;50.882;4.730;2023-02-13T05:47:35;1.30;99.90
8856;DHT22;4464;50.882;4.730;2023-02-13T05:50:01;1.30;99.90
8856;DHT22;4464;50.882;4.730;2023-02-13T05:52:27;1.30;99.90
8856;DHT22;4464;50.882;4.730;2023-02-13T05:54:53;1.40;99.90
8856;DHT22;4464;50.882;4.730;2023-02-13T05:57:21;1.30;99.90
8856;DHT22;4464;50.882;4.730;2023-02-13T05:59:49;1.10;99.90
8856;DHT22;4464;50.882;4.730;2023-02-13T06:02:17;1.10;99.90
8856;DHT22;4464;50.882;4.730;2023-02-13T06:04:43;1.10;99.90
8856;DHT22;4464;50.882;4.730;2023-02-13T06:07:08;1.10;99.90
8856;DHT22;4464;50.882;4.730;2023-02-13T06:09:34;1.00;99.90
8856;DHT22;4464;50.882;4.730;2023-02-13T06:12:00;1.10;99.90
8856;DHT22;4464;50.882;4.730;2023-02-13T06:14:26;1.10;99.90
8856;DHT22;4464;50.882;4.730;2023-02-13T06:16:54;1.10;99.90
8856;DHT22;4464;50.882;4.730;2023-02-13T06:19:20;1.10;99.90
8856;DHT22;4464;50.882;4.730;2023-02-13T06:21:48;1.10;99.90
8856;DHT22;4464;50.882;4.730;2023-02-13T06:24:14;1.10;99.90
8856;DHT22;4464;50.882;4.730;2023-02-13T06:26:40;1.10;99.90
8856;DHT22;4464;50.882;4.730;2023-02-13T06:29:08;1.10;99.90
8856;DHT22;4464;50.882;4.730;2023-02-13T06:31:36;1.10;99.90
8856;DHT22;4464;50.882;4.730;2023-02-13T06:34:02;1.10;99.90
8856;DHT22;4464;50.882;4.730;2023-02-13T06:36:28;1.10;99.90
8856;DHT22;4464;50.882;4.730;2023-02-13T06:38:57;1.10;99.90
8856;DHT22;4464;50.882;4.730;2023-02-13T06:41:25;1.00;99.90
8856;DHT22;4464;50.882;4.730;2023-02-13T06:43:51;1.00;99.90
8856;DHT22;4464;50.882;4.730;2023-02-13T06:46:19;1.10;99.90
8856;DHT22;4464;50.882;4.730;2023-02-13T06:48:44;1.00;99.90
8856;DHT22;4464;50.882;4.730;2023-02-13T06:51:10;1.00;99.90
8856;DHT22;4464;50.882;4.730;2023-02-13T06:53:38;1.10;99.90
8856;DHT22;4464;50.882;4.730;2023-02-13T06:56:04;1.10;99.90
8856;DHT22;4464;50.882;4.730;2023-02-13T06:58:31;1.10;99.90
8856;DHT22;4464;50.882;4.730;2023-02-13T07:00:58;1.10;99.90
8856;DHT22;4464;50.882;4.730;2023-02-13T07:03:24;1.10;99.90
8856;DHT22;4464;50.882;4.730;2023-02-13T07:05:53;1.10;99.90
8856;DHT22;4464;50.882;4.730;2023-02-13T07:08:21;1.20;99.90
8856;DHT22;4464;50.882;4.730;2023-02-13T07:10:50;1.20;99.90
8856;DHT22;4464;50.882;4.730;2023-02-13T07:13:16;1.20;99.90
8856;DHT22;4464;50.882;4.730;2023-02-13T07:15:42;1.20;99.90
8856;DHT22;4464;50.882;4.730;2023-02-13T07:18:10;1.30;99.90
8856;DHT22;4464;50.882;4.730;2023-02-13T07:20:41;1.30;99.90
8856;DHT22;4464;50.882;4.730;2023-02-13T07:23:06;1.30;99.90
8856;DHT22;4464;50.882;4.730;2023-02-13T07:25:32;1.30;99.90
8856;DHT22;4464;50.882;4.730;2023-02-13T07:28:04;1.30;99.90
8856;DHT22;4464;50.882;4.730;2023-02-13T07:30:31;1.30;99.90
8856;DHT22;4464;50.882;4.730;2023-02-13T07:33:01;1.40;99.90
8856;DHT22;4464;50.882;4.730;2023-02-13T07:35:27;1.50;99.90
8856;DHT22;4464;50.882;4.730;2023-02-13T07:37:53;1.60;99.90
8856;DHT22;4464;50.882;4.730;2023-02-13T07:40:20;1.80;99.90
8856;DHT22;4464;50.882;4.730;2023-02-13T07:42:45;1.90;99.90
8856;DHT22;4464;50.882;4.730;2023-02-13T07:45:11;2.10;99.90
8856;DHT22;4464;50.882;4.730;2023-02-13T07:47:40;2.40;99.90
8856;DHT22;4464;50.882;4.730;2023-02-13T07:50:09;2.70;99.90
8856;DHT22;4464;50.882;4.730;2023-02-13T07:52:35;3.00;99.90
8856;DHT22;4464;50.882;4.730;2023-02-13T07:55:03;3.40;99.90
8856;DHT22;4464;50.882;4.730;2023-02-13T07:57:31;3.70;99.90
8856;DHT22;4464;50.882;4.730;2023-02-13T07:59:57;4.00;99.90
8856;DHT22;4464;50.882;4.730;2023-02-13T08:02:23;4.30;99.90
8856;DHT22;4464;50.882;4.730;2023-02-13T08:04:51;4.40;99.90
8856;DHT22;4464;50.882;4.730;2023-02-13T08:07:17;4.50;99.90
8856;DHT22;4464;50.882;4.730;2023-02-13T08:09:46;4.70;99.90
8856;DHT22;4464;50.882;4.730;2023-02-13T08:12:31;4.60;99.90
8856;DHT22;4464;50.882;4.730;2023-02-13T08:14:57;4.50;99.90
8856;DHT22;4464;50.882;4.730;2023-02-13T08:17:26;4.60;99.90
8856;DHT22;4464;50.882;4.730;2023-02-13T08:19:54;4.80;99.90
8856;DHT22;4464;50.882;4.730;2023-02-13T08:22:22;5.20;99.90
8856;DHT22;4464;50.882;4.730;2023-02-13T08:24:48;5.60;99.90
8856;DHT22;4464;50.882;4.730;2023-02-13T08:27:16;5.80;99.90
8856;DHT22;4464;50.882;4.730;2023-02-13T08:29:42;6.20;99.90
8856;DHT22;4464;50.882;4.730;2023-02-13T08:32:08;6.70;99.90
8856;DHT22;4464;50.882;4.730;2023-02-13T08:34:36;7.20;99.90
8856;DHT22;4464;50.882;4.730;2023-02-13T08:37:02;8.30;99.90
8856;DHT22;4464;50.882;4.730;2023-02-13T08:39:30;9.20;99.90
8856;DHT22;4464;50.882;4.730;2023-02-13T08:42:01;9.90;99.90
8856;DHT22;4464;50.882;4.730;2023-02-13T08:44:27;10.70;99.90
8856;DHT22;4464;50.882;4.730;2023-02-13T08:46:55;11.60;99.90
8856;DHT22;4464;50.882;4.730;2023-02-13T08:49:21;12.30;99.90
8856;DHT22;4464;50.882;4.730;2023-02-13T08:51:48;12.90;99.90
8856;DHT22;4464;50.882;4.730;2023-02-13T08:54:14;13.50;99.90
8856;DHT22;4464;50.882;4.730;2023-02-13T08:56:41;14.00;99.90
8856;DHT22;4464;50.882;4.730;2023-02-13T08:59:10;14.60;99.90
8856;DHT22;4464;50.882;4.730;2023-02-13T09:01:39;14.90;99.90
8856;DHT22;4464;50.882;4.730;2023-02-13T09:04:07;14.40;99.90
8856;DHT22;4464;50.882;4.730;2023-02-13T09:06:33;13.90;99.90
8856;DHT22;4464;50.882;4.730;2023-02-13T09:08:59;14.30;99.90
8856;DHT22;4464;50.882;4.730;2023-02-13T09:11:25;14.50;99.90
8856;DHT22;4464;50.882;4.730;2023-02-13T09:13:54;15.10;99.90
8856;DHT22;4464;50.882;4.730;2023-02-13T09:16:20;15.70;99.90
8856;DHT22;4464;50.882;4.730;2023-02-13T09:18:47;15.80;99.90
8856;DHT22;4464;50.882;4.730;2023-02-13T09:21:18;16.00;99.90
8856;DHT22;4464;50.882;4.730;2023-02-13T09:23:46;16.20;99.90
8856;DHT22;4464;50.882;4.730;2023-02-13T09:26:18;16.80;99.90
8856;DHT22;4464;50.882;4.730;2023-02-13T09:28:44;17.20;99.90
8856;DHT22;4464;50.882;4.730;2023-02-13T09:31:20;17.10;99.90
8856;DHT22;4464;50.882;4.730;2023-02-13T09:33:47;17.10;99.90
8856;DHT22;4464;50.882;4.730;2023-02-13T09:36:15;17.50;99.90
8856;DHT22;4464;50.882;4.730;2023-02-13T09:38:44;17.90;98.90
8856;DHT22;4464;50.882;4.730;2023-02-13T09:41:31;18.00;98.60
8856;DHT22;4464;50.882;4.730;2023-02-13T09:49:32;17.70;98.90
8856;DHT22;4464;50.882;4.730;2023-02-13T09:52:02;18.40;98.20
8856;DHT22;4464;50.882;4.730;2023-02-13T09:54:28;19.10;97.30
8856;DHT22;4464;50.882;4.730;2023-02-13T09:57:19;19.30;96.90
8856;DHT22;4464;50.882;4.730;2023-02-13T10:21:22;20.90;94.20
8856;DHT22;4464;50.882;4.730;2023-02-13T10:26:35;21.80;93.00
8856;DHT22;4464;50.882;4.730;2023-02-13T10:32:03;19.60;93.50
8856;DHT22;4464;50.882;4.730;2023-02-13T10:34:43;18.00;94.70
8856;DHT22;4464;50.882;4.730;2023-02-13T10:37:17;16.50;96.30
8856;DHT22;4464;50.882;4.730;2023-02-13T10:39:51;15.40;98.20
8856;DHT22;4464;50.882;4.730;2023-02-13T10:50:47;13.10;99.90
8856;DHT22;4464;50.882;4.730;2023-02-13T10:56:28;15.30;99.90
8856;DHT22;4464;50.882;4.730;2023-02-13T11:04:08;20.70;95.70
8856;DHT22;4464;50.882;4.730;2023-02-13T11:06:41;22.00;94.30
8856;DHT22;4464;50.882;4.730;2023-02-13T11:09:07;22.20;93.00
8856;DHT22;4464;50.882;4.730;2023-02-13T11:11:37;21.90;92.90
8856;DHT22;4464;50.882;4.730;2023-02-13T11:14:15;22.20;92.90
8856;DHT22;4464;50.882;4.730;2023-02-13T11:16:56;22.10;92.80
8856;DHT22;4464;50.882;4.730;2023-02-13T11:22:14;23.40;91.90
8856;DHT22;4464;50.882;4.730;2023-02-13T11:25:21;23.40;90.90
8856;DHT22;4464;50.882;4.730;2023-02-13T11:27:45;23.20;91.40
8856;DHT22;4464;50.882;4.730;2023-02-13T11:30:34;24.30;90.60
8856;DHT22;4464;50.882;4.730;2023-02-13T11:33:05;24.80;89.50
8856;DHT22;4464;50.882;4.730;2023-02-13T11:35:33;24.40;88.50
8856;DHT22;4464;50.882;4.730;2023-02-13T11:40:50;24.80;87.30
8856;DHT22;4464;50.882;4.730;2023-02-13T11:43:35;24.30;87.70
8856;DHT22;4464;50.882;4.730;2023-02-13T11:46:17;24.20;86.90
8856;DHT22;4464;50.882;4.730;2023-02-13T11:48:59;24.00;86.70
8856;DHT22;4464;50.882;4.730;2023-02-13T11:51:45;24.00;87.20
8856;DHT22;4464;50.882;4.730;2023-02-13T11:57:02;24.80;85.40
8856;DHT22;4464;50.882;4.730;2023-02-13T11:59:37;24.90;84.60
8856;DHT22;4464;50.882;4.730;2023-02-13T12:02:26;25.10;84.70
8856;DHT22;4464;50.882;4.730;2023-02-13T12:04:55;25.00;83.10
8856;DHT22;4464;50.882;4.730;2023-02-13T12:07:39;24.80;84.10
8856;DHT22;4464;50.882;4.730;2023-02-13T12:10:17;25.10;83.90
8856;DHT22;4464;50.882;4.730;2023-02-13T12:12:48;25.60;82.50
8856;DHT22;4464;50.882;4.730;2023-02-13T12:18:15;25.60;82.30
8856;DHT22;4464;50.882;4.730;2023-02-13T12:21:04;25.60;81.40
8856;DHT22;4464;50.882;4.730;2023-02-13T12:26:40;26.00;80.00
8856;DHT22;4464;50.882;4.730;2023-02-13T13:08:26;26.10;78.50
8856;DHT22;4464;50.882;4.730;2023-02-13T13:14:14;26.10;76.60
8856;DHT22;4464;50.882;4.730;2023-02-13T13:22:31;26.20;77.00
8856;DHT22;4464;50.882;4.730;2023-02-13T13:28:21;26.80;76.30
8856;DHT22;4464;50.882;4.730;2023-02-13T13:30:47;27.10;74.80
8856;DHT22;4464;50.882;4.730;2023-02-13T13:33:20;27.00;74.60
8856;DHT22;4464;50.882;4.730;2023-02-13T13:44:27;27.30;73.50
8856;DHT22;4464;50.882;4.730;2023-02-13T13:47:02;27.60;74.30
8856;DHT22;4464;50.882;4.730;2023-02-13T13:50:00;27.60;73.30
8856;DHT22;4464;50.882;4.730;2023-02-13T13:52:32;26.90;73.70
8856;DHT22;4464;50.882;4.730;2023-02-13T13:55:01;26.70;74.50
8856;DHT22;4464;50.882;4.730;2023-02-13T14:05:28;26.90;74.30
8856;DHT22;4464;50.882;4.730;2023-02-13T14:08:00;27.00;73.60
8856;DHT22;4464;50.882;4.730;2023-02-13T14:18:02;26.90;73.30
8856;DHT22;4464;50.882;4.730;2023-02-13T14:20:42;26.90;73.10
8856;DHT22;4464;50.882;4.730;2023-02-13T14:28:35;27.30;73.10
8856;DHT22;4464;50.882;4.730;2023-02-13T14:31:07;27.40;72.40
8856;DHT22;4464;50.882;4.730;2023-02-13T14:33:39;27.50;71.60
8856;DHT22;4464;50.882;4.730;2023-02-13T14:36:07;27.10;72.20
8856;DHT22;4464;50.882;4.730;2023-02-13T14:38:41;26.90;72.50
8856;DHT22;4464;50.882;4.730;2023-02-13T14:44:18;26.90;70.80
8856;DHT22;4464;50.882;4.730;2023-02-13T14:46:45;27.00;71.60
8856;DHT22;4464;50.882;4.730;2023-02-13T14:52:05;27.30;69.80
8856;DHT22;4464;50.882;4.730;2023-02-13T14:54:37;27.40;70.40
8856;DHT22;4464;50.882;4.730;2023-02-13T14:57:22;27.50;69.40
8856;DHT22;4464;50.882;4.730;2023-02-13T14:59:53;26.60;70.40
8856;DHT22;4464;50.882;4.730;2023-02-13T15:02:24;26.70;71.20
8856;DHT22;4464;50.882;4.730;2023-02-13T15:05:03;26.40;71.60
8856;DHT22;4464;50.882;4.730;2023-02-13T15:07:40;26.20;70.10
8856;DHT22;4464;50.882;4.730;2023-02-13T15:10:39;26.20;69.80
8856;DHT22;4464;50.882;4.730;2023-02-13T15:13:22;26.40;69.60
8856;DHT22;4464;50.882;4.730;2023-02-13T15:15:57;26.40;69.20
8856;DHT22;4464;50.882;4.730;2023-02-13T15:18:50;26.50;69.60
8856;DHT22;4464;50.882;4.730;2023-02-13T15:21:22;25.90;69.80
8856;DHT22;4464;50.882;4.730;2023-02-13T15:23:53;26.00;69.80
8856;DHT22;4464;50.882;4.730;2023-02-13T15:26:23;25.40;70.40
8856;DHT22;4464;50.882;4.730;2023-02-13T15:29:17;24.90;71.40
8856;DHT22;4464;50.882;4.730;2023-02-13T15:31:45;25.40;70.40
8856;DHT22;4464;50.882;4.730;2023-02-13T15:36:54;25.50;71.00
8856;DHT22;4464;50.882;4.730;2023-02-13T15:39:28;25.30;71.10
8856;DHT22;4464;50.882;4.730;2023-02-13T15:41:59;25.40;71.90
8856;DHT22;4464;50.882;4.730;2023-02-13T15:44:31;25.20;71.60
8856;DHT22;4464;50.882;4.730;2023-02-13T15:47:06;25.00;72.30
8856;DHT22;4464;50.882;4.730;2023-02-13T15:49:44;25.00;72.10
8856;DHT22;4464;50.882;4.730;2023-02-13T15:52:30;25.00;73.70
8856;DHT22;4464;50.882;4.730;2023-02-13T15:54:57;24.90;72.30
8856;DHT22;4464;50.882;4.730;2023-02-13T15:57:23;24.80;73.20
8856;DHT22;4464;50.882;4.730;2023-02-13T15:59:54;24.50;73.20
8856;DHT22;4464;50.882;4.730;2023-02-13T16:02:22;24.30;72.70
8856;DHT22;4464;50.882;4.730;2023-02-13T16:04:52;23.90;75.30
8856;DHT22;4464;50.882;4.730;2023-02-13T16:07:21;24.00;75.00
8856;DHT22;4464;50.882;4.730;2023-02-13T16:09:47;24.00;74.30
8856;DHT22;4464;50.882;4.730;2023-02-13T16:14:51;23.40;75.90
8856;DHT22;4464;50.882;4.730;2023-02-13T16:17:30;23.00;77.00
8856;DHT22;4464;50.882;4.730;2023-02-13T16:20:06;22.60;77.80
8856;DHT22;4464;50.882;4.730;2023-02-13T16:22:56;21.90;78.90
8856;DHT22;4464;50.882;4.730;2023-02-13T16:25:37;20.90;81.30
8856;DHT22;4464;50.882;4.730;2023-02-13T16:28:22;20.00;83.20
8856;DHT22;4464;50.882;4.730;2023-02-13T16:33:27;18.50;87.30
8856;DHT22;4464;50.882;4.730;2023-02-13T16:38:49;16.80;90.80
8856;DHT22;4464;50.882;4.730;2023-02-13T16:43:47;15.40;93.10
8856;DHT22;4464;50.882;4.730;2023-02-13T16:46:21;15.00;94.10
8856;DHT22;4464;50.882;4.730;2023-02-13T16:56:48;13.60;96.90
8856;DHT22;4464;50.882;4.730;2023-02-13T17:02:22;13.20;98.80
8856;DHT22;4464;50.882;4.730;2023-02-13T17:07:46;12.70;99.90
8856;DHT22;4464;50.882;4.730;2023-02-13T17:10:33;12.60;99.90
8856;DHT22;4464;50.882;4.730;2023-02-13T17:15:29;12.30;99.90
8856;DHT22;4464;50.882;4.730;2023-02-13T17:17:55;12.20;99.90
8856;DHT22;4464;50.882;4.730;2023-02-13T17:20:30;12.10;99.90
8856;DHT22;4464;50.882;4.730;2023-02-13T17:22:59;11.90;99.90
8856;DHT22;4464;50.882;4.730;2023-02-13T17:25:29;11.70;99.90
8856;DHT22;4464;50.882;4.730;2023-02-13T17:27:57;11.50;99.90
8856;DHT22;4464;50.882;4.730;2023-02-13T17:30:28;11.40;99.90
8856;DHT22;4464;50.882;4.730;2023-02-13T17:33:05;11.30;99.90
8856;DHT22;4464;50.882;4.730;2023-02-13T17:35:34;11.20;99.90
8856;DHT22;4464;50.882;4.730;2023-02-13T17:38:00;11.00;99.90
8856;DHT22;4464;50.882;4.730;2023-02-13T17:40:26;10.90;99.90
8856;DHT22;4464;50.882;4.730;2023-02-13T17:42:55;10.80;99.90
8856;DHT22;4464;50.882;4.730;2023-02-13T17:45:24;10.60;99.90
8856;DHT22;4464;50.882;4.730;2023-02-13T17:47:52;10.30;99.90
8856;DHT22;4464;50.882;4.730;2023-02-13T17:50:19;10.00;99.90
8856;DHT22;4464;50.882;4.730;2023-02-13T17:52:52;9.90;99.90
8856;DHT22;4464;50.882;4.730;2023-02-13T17:55:24;9.90;99.90
8856;DHT22;4464;50.882;4.730;2023-02-13T17:57:51;9.80;99.90
8856;DHT22;4464;50.882;4.730;2023-02-13T18:00:20;9.80;99.90
8856;DHT22;4464;50.882;4.730;2023-02-13T18:02:50;9.80;99.90
8856;DHT22;4464;50.882;4.730;2023-02-13T18:05:17;9.80;99.90
8856;DHT22;4464;50.882;4.730;2023-02-13T18:07:46;9.80;99.90
8856;DHT22;4464;50.882;4.730;2023-02-13T18:10:15;9.70;99.90
8856;DHT22;4464;50.882;4.730;2023-02-13T18:12:44;9.50;99.90
8856;DHT22;4464;50.882;4.730;2023-02-13T18:15:11;9.40;99.90
8856;DHT22;4464;50.882;4.730;2023-02-13T18:17:40;9.30;99.90
8856;DHT22;4464;50.882;4.730;2023-02-13T18:20:06;9.20;99.90
8856;DHT22;4464;50.882;4.730;2023-02-13T18:22:32;9.10;99.90
8856;DHT22;4464;50.882;4.730;2023-02-13T18:25:00;9.00;99.90
8856;DHT22;4464;50.882;4.730;2023-02-13T18:27:26;9.00;99.90
8856;DHT22;4464;50.882;4.730;2023-02-13T18:29:54;9.00;99.90
8856;DHT22;4464;50.882;4.730;2023-02-13T18:32:20;9.00;99.90
8856;DHT22;4464;50.882;4.730;2023-02-13T18:34:49;8.90;99.90
8856;DHT22;4464;50.882;4.730;2023-02-13T18:37:16;8.70;99.90
8856;DHT22;4464;50.882;4.730;2023-02-13T18:39:42;8.70;99.90
8856;DHT22;4464;50.882;4.730;2023-02-13T18:42:11;8.60;99.90
8856;DHT22;4464;50.882;4.730;2023-02-13T18:44:40;8.50;99.90
8856;DHT22;4464;50.882;4.730;2023-02-13T18:47:06;8.50;99.90
8856;DHT22;4464;50.882;4.730;2023-02-13T18:49:32;8.40;99.90
8856;DHT22;4464;50.882;4.730;2023-02-13T18:52:00;8.40;99.90
8856;DHT22;4464;50.882;4.730;2023-02-13T18:54:29;8.30;99.90
8856;DHT22;4464;50.882;4.730;2023-02-13T18:56:55;8.30;99.90
8856;DHT22;4464;50.882;4.730;2023-02-13T18:59:21;8.20;99.90
8856;DHT22;4464;50.882;4.730;2023-02-13T19:01:48;8.10;99.90
8856;DHT22;4464;50.882;4.730;2023-02-13T19:04:14;8.00;99.90
8856;DHT22;4464;50.882;4.730;2023-02-13T19:06:41;8.00;99.90
8856;DHT22;4464;50.882;4.730;2023-02-13T19:09:08;7.80;99.90
8856;DHT22;4464;50.882;4.730;2023-02-13T19:11:34;7.70;99.90
8856;DHT22;4464;50.882;4.730;2023-02-13T19:14:02;7.60;99.90
8856;DHT22;4464;50.882;4.730;2023-02-13T19:16:32;7.60;99.90
8856;DHT22;4464;50.882;4.730;2023-02-13T19:19:00;7.60;99.90
8856;DHT22;4464;50.882;4.730;2023-02-13T19:21:29;7.50;99.90
8856;DHT22;4464;50.882;4.730;2023-02-13T19:23:55;7.50;99.90
8856;DHT22;4464;50.882;4.730;2023-02-13T19:26:25;7.40;99.90
8856;DHT22;4464;50.882;4.730;2023-02-13T19:28:54;7.30;99.90
8856;DHT22;4464;50.882;4.730;2023-02-13T19:31:22;7.20;99.90
8856;DHT22;4464;50.882;4.730;2023-02-13T19:33:49;7.20;99.90
8856;DHT22;4464;50.882;4.730;2023-02-13T19:36:18;7.20;99.90
8856;DHT22;4464;50.882;4.730;2023-02-13T19:38:44;7.10;99.90
8856;DHT22;4464;50.882;4.730;2023-02-13T19:41:15;7.10;99.90
8856;DHT22;4464;50.882;4.730;2023-02-13T19:43:45;7.10;99.90
8856;DHT22;4464;50.882;4.730;2023-02-13T19:46:17;7.10;99.90
8856;DHT22;4464;50.882;4.730;2023-02-13T19:48:46;7.00;99.90
8856;DHT22;4464;50.882;4.730;2023-02-13T19:51:14;7.00;99.90
8856;DHT22;4464;50.882;4.730;2023-02-13T19:53:40;7.00;99.90
8856;DHT22;4464;50.882;4.730;2023-02-13T19:56:09;7.00;99.90
8856;DHT22;4464;50.882;4.730;2023-02-13T19:58:39;7.00;99.90
8856;DHT22;4464;50.882;4.730;2023-02-13T20:01:13;6.90;99.90
8856;DHT22;4464;50.882;4.730;2023-02-13T20:03:40;6.80;99.90
8856;DHT22;4464;50.882;4.730;2023-02-13T20:06:08;6.70;99.90
8856;DHT22;4464;50.882;4.730;2023-02-13T20:08:34;6.50;99.90
8856;DHT22;4464;50.882;4.730;2023-02-13T20:11:03;6.50;99.90
8856;DHT22;4464;50.882;4.730;2023-02-13T20:13:33;6.50;99.90
8856;DHT22;4464;50.882;4.730;2023-02-13T20:16:01;6.50;99.90
8856;DHT22;4464;50.882;4.730;2023-02-13T20:18:29;6.40;99.90
8856;DHT22;4464;50.882;4.730;2023-02-13T20:20:55;6.50;99.90
8856;DHT22;4464;50.882;4.730;2023-02-13T20:23:24;6.40;99.90